sensor_id;sensor_type;location;lat;lon;timestamp;pressure;altitude;pressure_sealevel;temperature;humidity
23733;BME280;12047;53.450;-2.286;2023-08-24T00:04:31;101226.94;;;23.85;100.00
23733;BME280;12047;53.450;-2.286;2023-08-24T00:09:31;101218.25;;;24.21;100.00
23733;BME280;12047;53.450;-2.286;2023-08-24T00:14:32;101218.31;;;24.08;100.00
23733;BME280;12047;53.450;-2.286;2023-08-24T00:19:32;101219.94;;;24.16;100.00
23733;BME280;12047;53.450;-2.286;2023-08-24T00:24:33;101227.91;;;24.04;100.00
23733;BME280;12047;53.450;-2.286;2023-08-24T00:29:33;101217.06;;;24.04;100.00
23733;BME280;12047;53.450;-2.286;2023-08-24T00:34:34;101221.53;;;23.79;100.00
23733;BME280;12047;53.450;-2.286;2023-08-24T00:39:35;101210.69;;;23.85;100.00
23733;BME280;12047;53.450;-2.286;2023-08-24T00:44:35;101198.91;;;24.24;100.00
23733;BME280;12047;53.450;-2.286;2023-08-24T00:49:36;101190.47;;;23.94;100.00
23733;BME280;12047;53.450;-2.286;2023-08-24T00:54:37;101212.75;;;23.96;100.00
23733;BME280;12047;53.450;-2.286;2023-08-24T00:59:39;101193.25;;;23.74;100.00
23733;BME280;12047;53.450;-2.286;2023-08-24T01:04:43;101200.69;;;23.86;100.00
23733;BME280;12047;53.450;-2.286;2023-08-24T01:09:44;101201.31;;;23.88;100.00
23733;BME280;12047;53.450;-2.286;2023-08-24T01:20:05;101177.56;;;23.90;100.00
23733;BME280;12047;53.450;-2.286;2023-08-24T01:25:12;101194.09;;;23.68;100.00
23733;BME280;12047;53.450;-2.286;2023-08-24T01:30:17;101194.09;;;23.62;100.00
23733;BME280;12047;53.450;-2.286;2023-08-24T01:35:19;101184.56;;;23.46;100.00
23733;BME280;12047;53.450;-2.286;2023-08-24T01:40:25;101181.00;;;23.46;100.00
23733;BME280;12047;53.450;-2.286;2023-08-24T01:45:31;101180.16;;;23.65;100.00
23733;BME280;12047;53.450;-2.286;2023-08-24T01:50:32;101156.44;;;23.54;100.00
23733;BME280;12047;53.450;-2.286;2023-08-24T01:55:33;101160.59;;;23.63;100.00
23733;BME280;12047;53.450;-2.286;2023-08-24T02:00:34;101155.69;;;23.07;100.00
23733;BME280;12047;53.450;-2.286;2023-08-24T02:05:34;101150.84;;;23.55;100.00
23733;BME280;12047;53.450;-2.286;2023-08-24T02:10:35;101135.31;;;23.04;100.00
23733;BME280;12047;53.450;-2.286;2023-08-24T02:15:37;101134.81;;;23.47;100.00
23733;BME280;12047;53.450;-2.286;2023-08-24T02:20:39;101132.16;;;23.98;100.00
23733;BME280;12047;53.450;-2.286;2023-08-24T02:25:44;101141.84;;;23.74;100.00
23733;BME280;12047;53.450;-2.286;2023-08-24T02:30:44;101132.59;;;23.04;100.00
23733;BME280;12047;53.450;-2.286;2023-08-24T02:35:48;101141.84;;;23.74;100.00
23733;BME280;12047;53.450;-2.286;2023-08-24T02:40:48;101154.81;;;23.39;100.00
23733;BME280;12047;53.450;-2.286;2023-08-24T02:45:49;101134.00;;;23.40;100.00
23733;BME280;12047;53.450;-2.286;2023-08-24T02:50:49;101128.06;;;23.83;100.00
23733;BME280;12047;53.450;-2.286;2023-08-24T02:55:50;101130.28;;;23.28;100.00
23733;BME280;12047;53.450;-2.286;2023-08-24T03:00:50;101141.28;;;23.33;100.00
23733;BME280;12047;53.450;-2.286;2023-08-24T03:05:55;101131.75;;;23.24;100.00
23733;BME280;12047;53.450;-2.286;2023-08-24T03:15:56;101133.00;;;23.01;100.00
23733;BME280;12047;53.450;-2.286;2023-08-24T03:20:58;101129.44;;;22.35;100.00
23733;BME280;12047;53.450;-2.286;2023-08-24T03:25:59;101125.91;;;22.54;100.00
23733;BME280;12047;53.450;-2.286;2023-08-24T03:31:00;101122.97;;;23.48;100.00
23733;BME280;12047;53.450;-2.286;2023-08-24T03:36:01;101102.16;;;23.42;100.00
23733;BME280;12047;53.450;-2.286;2023-08-24T03:41:04;101089.28;;;23.31;100.00
23733;BME280;12047;53.450;-2.286;2023-08-24T03:46:05;101076.06;;;23.74;100.00
23733;BME280;12047;53.450;-2.286;2023-08-24T03:51:06;101069.84;;;23.67;100.00
23733;BME280;12047;53.450;-2.286;2023-08-24T03:56:06;101062.00;;;23.97;100.00
23733;BME280;12047;53.450;-2.286;2023-08-24T04:01:10;101058.06;;;23.93;100.00
23733;BME280;12047;53.450;-2.286;2023-08-24T04:06:11;101051.44;;;24.20;100.00
23733;BME280;12047;53.450;-2.286;2023-08-24T04:11:11;101053.28;;;23.88;100.00
23733;BME280;12047;53.450;-2.286;2023-08-24T04:16:11;101053.91;;;23.90;100.00
23733;BME280;12047;53.450;-2.286;2023-08-24T04:21:12;101064.50;;;23.98;100.00
23733;BME280;12047;53.450;-2.286;2023-08-24T04:26:12;101057.88;;;23.30;100.00
23733;BME280;12047;53.450;-2.286;2023-08-24T04:31:13;101048.66;;;23.57;100.00
23733;BME280;12047;53.450;-2.286;2023-08-24T04:36:13;101060.47;;;23.69;100.00
23733;BME280;12047;53.450;-2.286;2023-08-24T04:41:14;101059.34;;;23.84;100.00
23733;BME280;12047;53.450;-2.286;2023-08-24T04:46:14;101068.84;;;23.61;100.00
23733;BME280;12047;53.450;-2.286;2023-08-24T04:51:15;101058.69;;;23.95;100.00
23733;BME280;12047;53.450;-2.286;2023-08-24T04:56:15;101055.91;;;22.66;100.00
23733;BME280;12047;53.450;-2.286;2023-08-24T05:01:16;101066.09;;;22.90;100.00
23733;BME280;12047;53.450;-2.286;2023-08-24T05:06:16;101074.34;;;23.80;100.00
23733;BME280;12047;53.450;-2.286;2023-08-24T05:11:19;101065.69;;;22.60;100.00
23733;BME280;12047;53.450;-2.286;2023-08-24T05:16:19;101064.22;;;22.58;100.00
23733;BME280;12047;53.450;-2.286;2023-08-24T05:21:20;101063.19;;;22.32;100.00
23733;BME280;12047;53.450;-2.286;2023-08-24T05:26:20;101051.34;;;22.66;100.00
23733;BME280;12047;53.450;-2.286;2023-08-24T05:31:24;101051.97;;;22.82;100.00
23733;BME280;12047;53.450;-2.286;2023-08-24T05:36:25;101041.78;;;22.97;100.00
23733;BME280;12047;53.450;-2.286;2023-08-24T05:41:25;101044.50;;;22.90;100.00
23733;BME280;12047;53.450;-2.286;2023-08-24T05:46:26;101042.00;;;22.89;100.00
23733;BME280;12047;53.450;-2.286;2023-08-24T05:51:26;101037.44;;;22.43;100.00
23733;BME280;12047;53.450;-2.286;2023-08-24T05:56:27;101029.94;;;22.58;100.00
23733;BME280;12047;53.450;-2.286;2023-08-24T06:01:27;101035.50;;;23.16;100.00
23733;BME280;12047;53.450;-2.286;2023-08-24T06:06:27;101041.16;;;22.82;100.00
23733;BME280;12047;53.450;-2.286;2023-08-24T06:11:28;101034.19;;;23.32;100.00
23733;BME280;12047;53.450;-2.286;2023-08-24T06:16:29;101043.06;;;23.52;100.00
23733;BME280;12047;53.450;-2.286;2023-08-24T06:21:29;101049.50;;;23.58;100.00
23733;BME280;12047;53.450;-2.286;2023-08-24T06:26:30;101030.16;;;22.96;100.00
23733;BME280;12047;53.450;-2.286;2023-08-24T06:31:30;101022.88;;;22.97;100.00
23733;BME280;12047;53.450;-2.286;2023-08-24T06:36:31;101019.63;;;23.33;100.00
23733;BME280;12047;53.450;-2.286;2023-08-24T06:41:35;100999.09;;;23.19;100.00
23733;BME280;12047;53.450;-2.286;2023-08-24T06:46:36;100995.47;;;23.38;100.00
23733;BME280;12047;53.450;-2.286;2023-08-24T06:51:36;100990.81;;;23.07;100.00
23733;BME280;12047;53.450;-2.286;2023-08-24T06:56:37;100999.56;;;23.54;100.00
23733;BME280;12047;53.450;-2.286;2023-08-24T07:01:37;100995.81;;;23.93;100.00
23733;BME280;12047;53.450;-2.286;2023-08-24T07:06:38;101001.91;;;23.82;100.00
23733;BME280;12047;53.450;-2.286;2023-08-24T07:11:38;100985.28;;;23.33;100.00
23733;BME280;12047;53.450;-2.286;2023-08-24T07:16:38;101004.53;;;23.05;100.00
23733;BME280;12047;53.450;-2.286;2023-08-24T07:21:39;101008.97;;;23.45;100.00
23733;BME280;12047;53.450;-2.286;2023-08-24T07:26:40;100996.88;;;23.92;100.00
23733;BME280;12047;53.450;-2.286;2023-08-24T07:31:42;100975.06;;;23.80;100.00
23733;BME280;12047;53.450;-2.286;2023-08-24T07:36:43;100990.00;;;23.89;100.00
23733;BME280;12047;53.450;-2.286;2023-08-24T07:41:45;100966.22;;;23.66;100.00
23733;BME280;12047;53.450;-2.286;2023-08-24T07:46:48;100962.81;;;23.39;100.00
23733;BME280;12047;53.450;-2.286;2023-08-24T07:51:49;100955.13;;;22.92;100.00
23733;BME280;12047;53.450;-2.286;2023-08-24T07:56:50;100954.91;;;22.93;100.00
23733;BME280;12047;53.450;-2.286;2023-08-24T08:01:50;100966.97;;;22.84;100.00
23733;BME280;12047;53.450;-2.286;2023-08-24T08:06:51;100960.78;;;23.28;100.00
23733;BME280;12047;53.450;-2.286;2023-08-24T08:11:51;100945.69;;;23.07;100.00
23733;BME280;12047;53.450;-2.286;2023-08-24T08:16:56;100940.66;;;23.18;100.00
23733;BME280;12047;53.450;-2.286;2023-08-24T08:21:57;100949.81;;;23.23;100.00
23733;BME280;12047;53.450;-2.286;2023-08-24T08:26:58;100947.84;;;23.37;100.00
23733;BME280;12047;53.450;-2.286;2023-08-24T08:31:58;100948.94;;;23.67;100.00
23733;BME280;12047;53.450;-2.286;2023-08-24T08:36:59;100943.25;;;23.44;100.00
23733;BME280;12047;53.450;-2.286;2023-08-24T08:41:59;100943.25;;;23.44;100.00
23733;BME280;12047;53.450;-2.286;2023-08-24T08:47:02;100961.56;;;23.42;100.00
23733;BME280;12047;53.450;-2.286;2023-08-24T08:52:02;100949.75;;;23.30;100.00
23733;BME280;12047;53.450;-2.286;2023-08-24T08:57:04;100962.47;;;23.67;100.00
23733;BME280;12047;53.450;-2.286;2023-08-24T09:02:05;100952.13;;;23.51;100.00
23733;BME280;12047;53.450;-2.286;2023-08-24T09:07:07;100941.19;;;24.27;100.00
23733;BME280;12047;53.450;-2.286;2023-08-24T09:12:10;100954.56;;;23.66;100.00
23733;BME280;12047;53.450;-2.286;2023-08-24T09:17:19;100946.13;;;23.49;100.00
23733;BME280;12047;53.450;-2.286;2023-08-24T09:22:20;100953.47;;;23.35;100.00
23733;BME280;12047;53.450;-2.286;2023-08-24T09:27:21;100954.16;;;23.69;100.00
23733;BME280;12047;53.450;-2.286;2023-08-24T09:32:31;100950.88;;;23.16;100.00
23733;BME280;12047;53.450;-2.286;2023-08-24T09:37:35;100943.88;;;23.39;100.00
23733;BME280;12047;53.450;-2.286;2023-08-24T09:42:41;100943.03;;;23.77;100.00
23733;BME280;12047;53.450;-2.286;2023-08-24T09:47:49;100959.75;;;23.74;100.00
23733;BME280;12047;53.450;-2.286;2023-08-24T09:52:51;100950.25;;;24.15;100.00
23733;BME280;12047;53.450;-2.286;2023-08-24T09:57:54;100946.44;;;23.97;100.00
23733;BME280;12047;53.450;-2.286;2023-08-24T10:02:58;100950.72;;;23.49;100.00
23733;BME280;12047;53.450;-2.286;2023-08-24T10:08:01;100952.41;;;23.43;100.00
23733;BME280;12047;53.450;-2.286;2023-08-24T10:13:17;100944.50;;;24.04;100.00
23733;BME280;12047;53.450;-2.286;2023-08-24T10:18:18;100958.13;;;23.66;100.00
23733;BME280;12047;53.450;-2.286;2023-08-24T10:23:20;100961.38;;;22.79;100.00
23733;BME280;12047;53.450;-2.286;2023-08-24T10:28:23;100951.88;;;23.21;100.00
23733;BME280;12047;53.450;-2.286;2023-08-24T10:33:26;100943.34;;;23.62;100.00
23733;BME280;12047;53.450;-2.286;2023-08-24T10:38:29;100929.88;;;24.12;100.00
23733;BME280;12047;53.450;-2.286;2023-08-24T10:43:30;100938.41;;;24.77;100.00
23733;BME280;12047;53.450;-2.286;2023-08-24T10:53:44;100942.53;;;24.61;100.00
23733;BME280;12047;53.450;-2.286;2023-08-24T10:58:46;100940.00;;;24.66;100.00
23733;BME280;12047;53.450;-2.286;2023-08-24T11:03:51;100944.31;;;24.74;100.00
23733;BME280;12047;53.450;-2.286;2023-08-24T11:09:08;100943.53;;;24.49;100.00
23733;BME280;12047;53.450;-2.286;2023-08-24T11:14:17;100940.75;;;24.30;100.00
23733;BME280;12047;53.450;-2.286;2023-08-24T11:19:26;100946.09;;;24.12;100.00
23733;BME280;12047;53.450;-2.286;2023-08-24T11:24:28;100937.94;;;23.62;100.00
23733;BME280;12047;53.450;-2.286;2023-08-24T11:29:29;100928.25;;;23.80;100.00
23733;BME280;12047;53.450;-2.286;2023-08-24T11:34:30;100938.59;;;24.14;100.00
23733;BME280;12047;53.450;-2.286;2023-08-24T11:39:30;100940.13;;;24.03;100.00
23733;BME280;12047;53.450;-2.286;2023-08-24T11:44:46;100971.97;;;22.74;100.00
23733;BME280;12047;53.450;-2.286;2023-08-24T11:49:47;100963.78;;;23.07;100.00
23733;BME280;12047;53.450;-2.286;2023-08-24T11:54:51;100949.56;;;22.54;100.00
23733;BME280;12047;53.450;-2.286;2023-08-24T11:59:52;100946.41;;;22.83;100.00
23733;BME280;12047;53.450;-2.286;2023-08-24T12:04:53;100963.53;;;23.22;100.00
23733;BME280;12047;53.450;-2.286;2023-08-24T12:09:54;100958.00;;;22.77;100.00
23733;BME280;12047;53.450;-2.286;2023-08-24T12:14:55;100952.09;;;23.20;100.00
23733;BME280;12047;53.450;-2.286;2023-08-24T12:19:59;100948.53;;;23.70;100.00
23733;BME280;12047;53.450;-2.286;2023-08-24T12:25:00;100955.00;;;24.19;100.00
23733;BME280;12047;53.450;-2.286;2023-08-24T12:30:01;100943.56;;;24.17;100.00
23733;BME280;12047;53.450;-2.286;2023-08-24T12:35:02;100934.56;;;24.23;100.00
23733;BME280;12047;53.450;-2.286;2023-08-24T12:40:03;100944.41;;;23.61;100.00
23733;BME280;12047;53.450;-2.286;2023-08-24T12:45:06;100925.94;;;24.08;100.00
23733;BME280;12047;53.450;-2.286;2023-08-24T12:50:07;100923.47;;;24.31;100.00
23733;BME280;12047;53.450;-2.286;2023-08-24T12:55:07;100941.97;;;24.34;100.00
23733;BME280;12047;53.450;-2.286;2023-08-24T13:00:08;100926.78;;;24.33;100.00
23733;BME280;12047;53.450;-2.286;2023-08-24T13:05:09;100937.63;;;24.52;100.00
23733;BME280;12047;53.450;-2.286;2023-08-24T13:10:10;100915.66;;;24.78;100.00
23733;BME280;12047;53.450;-2.286;2023-08-24T13:15:11;100911.84;;;24.67;100.00
23733;BME280;12047;53.450;-2.286;2023-08-24T13:20:12;100916.75;;;24.95;100.00
23733;BME280;12047;53.450;-2.286;2023-08-24T13:25:12;100926.06;;;24.45;100.00
23733;BME280;12047;53.450;-2.286;2023-08-24T13:30:13;100922.00;;;24.90;100.00
23733;BME280;12047;53.450;-2.286;2023-08-24T13:35:13;100922.38;;;24.75;100.00
23733;BME280;12047;53.450;-2.286;2023-08-24T13:40:14;100917.31;;;24.18;100.00
23733;BME280;12047;53.450;-2.286;2023-08-24T13:45:15;100910.75;;;24.32;100.00
23733;BME280;12047;53.450;-2.286;2023-08-24T13:50:16;100895.28;;;24.39;100.00
23733;BME280;12047;53.450;-2.286;2023-08-24T13:55:16;100897.28;;;23.76;100.00
23733;BME280;12047;53.450;-2.286;2023-08-24T14:00:17;100883.25;;;24.10;100.00
23733;BME280;12047;53.450;-2.286;2023-08-24T14:05:18;100876.78;;;24.11;100.00
23733;BME280;12047;53.450;-2.286;2023-08-24T14:10:19;100880.59;;;24.28;100.00
23733;BME280;12047;53.450;-2.286;2023-08-24T14:15:20;100885.44;;;24.63;100.00
23733;BME280;12047;53.450;-2.286;2023-08-24T14:20:20;100880.38;;;25.33;100.00
23733;BME280;12047;53.450;-2.286;2023-08-24T14:25:21;100869.22;;;24.93;100.00
23733;BME280;12047;53.450;-2.286;2023-08-24T14:30:21;100877.88;;;25.31;100.00
23733;BME280;12047;53.450;-2.286;2023-08-24T14:35:22;100874.81;;;24.25;100.00
23733;BME280;12047;53.450;-2.286;2023-08-24T14:40:22;100866.56;;;24.13;100.00
23733;BME280;12047;53.450;-2.286;2023-08-24T14:45:22;100863.72;;;24.99;100.00
23733;BME280;12047;53.450;-2.286;2023-08-24T14:50:23;100851.09;;;24.57;100.00
23733;BME280;12047;53.450;-2.286;2023-08-24T14:55:24;100856.81;;;24.30;100.00
23733;BME280;12047;53.450;-2.286;2023-08-24T15:00:24;100842.75;;;24.40;100.00
23733;BME280;12047;53.450;-2.286;2023-08-24T15:05:25;100834.78;;;24.63;100.00
23733;BME280;12047;53.450;-2.286;2023-08-24T15:10:26;100829.13;;;24.65;100.00
23733;BME280;12047;53.450;-2.286;2023-08-24T15:15:26;100826.38;;;24.83;100.00
23733;BME280;12047;53.450;-2.286;2023-08-24T15:20:26;100837.94;;;25.38;99.89
23733;BME280;12047;53.450;-2.286;2023-08-24T15:25:27;100844.97;;;24.50;100.00
23733;BME280;12047;53.450;-2.286;2023-08-24T15:30:28;100843.25;;;25.03;100.00
23733;BME280;12047;53.450;-2.286;2023-08-24T15:35:28;100837.75;;;24.19;97.03
23733;BME280;12047;53.450;-2.286;2023-08-24T15:40:30;100831.19;;;24.99;97.25
23733;BME280;12047;53.450;-2.286;2023-08-24T15:45:32;100830.50;;;25.04;96.91
23733;BME280;12047;53.450;-2.286;2023-08-24T15:50:33;100829.88;;;24.54;93.27
23733;BME280;12047;53.450;-2.286;2023-08-24T15:55:33;100828.22;;;24.53;92.29
23733;BME280;12047;53.450;-2.286;2023-08-24T16:00:34;100831.09;;;24.39;91.27
23733;BME280;12047;53.450;-2.286;2023-08-24T16:05:34;100824.72;;;24.82;93.15
23733;BME280;12047;53.450;-2.286;2023-08-24T16:10:35;100822.94;;;24.76;87.97
23733;BME280;12047;53.450;-2.286;2023-08-24T16:15:36;100824.53;;;23.86;86.54
23733;BME280;12047;53.450;-2.286;2023-08-24T16:20:36;100837.44;;;23.65;85.03
23733;BME280;12047;53.450;-2.286;2023-08-24T16:25:36;100828.19;;;23.98;82.74
23733;BME280;12047;53.450;-2.286;2023-08-24T16:30:37;100828.03;;;23.93;84.60
23733;BME280;12047;53.450;-2.286;2023-08-24T16:35:37;100822.16;;;23.46;82.98
23733;BME280;12047;53.450;-2.286;2023-08-24T16:40:38;100830.22;;;23.53;82.88
23733;BME280;12047;53.450;-2.286;2023-08-24T16:45:39;100833.09;;;23.83;84.47
23733;BME280;12047;53.450;-2.286;2023-08-24T16:50:39;100825.59;;;23.60;84.55
23733;BME280;12047;53.450;-2.286;2023-08-24T16:55:40;100827.19;;;23.04;84.00
23733;BME280;12047;53.450;-2.286;2023-08-24T17:00:40;100824.13;;;23.32;86.57
23733;BME280;12047;53.450;-2.286;2023-08-24T17:05:40;100826.00;;;23.32;85.90
23733;BME280;12047;53.450;-2.286;2023-08-24T17:10:42;100839.81;;;22.72;90.04
23733;BME280;12047;53.450;-2.286;2023-08-24T17:15:51;100834.34;;;22.92;88.00
23733;BME280;12047;53.450;-2.286;2023-08-24T17:20:53;100831.66;;;22.92;88.98
23733;BME280;12047;53.450;-2.286;2023-08-24T17:25:53;100838.00;;;23.42;85.95
23733;BME280;12047;53.450;-2.286;2023-08-24T17:30:53;100836.19;;;22.98;92.11
23733;BME280;12047;53.450;-2.286;2023-08-24T17:35:59;100842.91;;;23.21;92.08
23733;BME280;12047;53.450;-2.286;2023-08-24T17:41:03;100836.25;;;22.85;95.86
23733;BME280;12047;53.450;-2.286;2023-08-24T17:46:05;100833.34;;;22.16;98.16
23733;BME280;12047;53.450;-2.286;2023-08-24T17:51:05;100838.31;;;22.25;98.54
23733;BME280;12047;53.450;-2.286;2023-08-24T17:56:06;100834.97;;;22.30;98.08
23733;BME280;12047;53.450;-2.286;2023-08-24T18:01:07;100833.75;;;22.13;100.00
23733;BME280;12047;53.450;-2.286;2023-08-24T18:06:07;100830.81;;;22.27;98.27
23733;BME280;12047;53.450;-2.286;2023-08-24T18:11:08;100848.28;;;21.79;99.39
23733;BME280;12047;53.450;-2.286;2023-08-24T18:16:08;100854.09;;;22.15;99.75
23733;BME280;12047;53.450;-2.286;2023-08-24T18:21:09;100854.63;;;22.57;99.23
23733;BME280;12047;53.450;-2.286;2023-08-24T18:26:12;100846.63;;;22.04;100.00
23733;BME280;12047;53.450;-2.286;2023-08-24T18:31:13;100851.56;;;22.33;100.00
23733;BME280;12047;53.450;-2.286;2023-08-24T18:36:14;100844.56;;;21.80;100.00
23733;BME280;12047;53.450;-2.286;2023-08-24T18:41:14;100843.72;;;21.79;100.00
23733;BME280;12047;53.450;-2.286;2023-08-24T18:46:15;100843.50;;;21.54;100.00
23733;BME280;12047;53.450;-2.286;2023-08-24T18:51:15;100840.63;;;21.62;100.00
23733;BME280;12047;53.450;-2.286;2023-08-24T18:56:18;100849.75;;;21.48;100.00
23733;BME280;12047;53.450;-2.286;2023-08-24T19:01:19;100839.56;;;21.83;100.00
23733;BME280;12047;53.450;-2.286;2023-08-24T19:06:19;100840.63;;;21.69;100.00
23733;BME280;12047;53.450;-2.286;2023-08-24T19:11:20;100851.59;;;21.54;100.00
23733;BME280;12047;53.450;-2.286;2023-08-24T19:16:20;100841.66;;;21.48;100.00
23733;BME280;12047;53.450;-2.286;2023-08-24T19:21:21;100844.41;;;20.94;100.00
23733;BME280;12047;53.450;-2.286;2023-08-24T19:26:26;100838.13;;;21.41;100.00
23733;BME280;12047;53.450;-2.286;2023-08-24T19:31:26;100847.00;;;21.28;100.00
23733;BME280;12047;53.450;-2.286;2023-08-24T19:36:27;100846.34;;;21.13;100.00
23733;BME280;12047;53.450;-2.286;2023-08-24T19:41:30;100848.50;;;21.44;100.00
23733;BME280;12047;53.450;-2.286;2023-08-24T19:46:31;100848.38;;;20.98;100.00
23733;BME280;12047;53.450;-2.286;2023-08-24T19:51:34;100860.59;;;20.94;100.00
23733;BME280;12047;53.450;-2.286;2023-08-24T19:56:34;100862.50;;;20.59;100.00
23733;BME280;12047;53.450;-2.286;2023-08-24T20:01:35;100868.47;;;20.48;100.00
23733;BME280;12047;53.450;-2.286;2023-08-24T20:06:35;100879.69;;;21.12;100.00
23733;BME280;12047;53.450;-2.286;2023-08-24T20:11:35;100883.56;;;20.90;100.00
23733;BME280;12047;53.450;-2.286;2023-08-24T20:16:36;100876.59;;;21.15;100.00
23733;BME280;12047;53.450;-2.286;2023-08-24T20:21:36;100873.44;;;21.05;100.00
23733;BME280;12047;53.450;-2.286;2023-08-24T20:26:37;100872.38;;;20.93;100.00
23733;BME280;12047;53.450;-2.286;2023-08-24T20:31:38;100881.66;;;20.77;100.00
23733;BME280;12047;53.450;-2.286;2023-08-24T20:36:39;100891.19;;;20.17;100.00
23733;BME280;12047;53.450;-2.286;2023-08-24T20:41:39;100889.41;;;20.59;100.00
23733;BME280;12047;53.450;-2.286;2023-08-24T20:46:43;100890.09;;;20.67;100.00
23733;BME280;12047;53.450;-2.286;2023-08-24T20:51:44;100896.66;;;20.30;100.00
23733;BME280;12047;53.450;-2.286;2023-08-24T20:56:44;100896.72;;;20.09;100.00
23733;BME280;12047;53.450;-2.286;2023-08-24T21:01:45;100891.28;;;19.75;100.00
23733;BME280;12047;53.450;-2.286;2023-08-24T21:06:45;100881.78;;;20.28;100.00
23733;BME280;12047;53.450;-2.286;2023-08-24T21:11:46;100877.06;;;20.71;100.00
23733;BME280;12047;53.450;-2.286;2023-08-24T21:16:46;100876.78;;;20.31;100.00
23733;BME280;12047;53.450;-2.286;2023-08-24T21:21:47;100874.81;;;20.12;100.00
23733;BME280;12047;53.450;-2.286;2023-08-24T21:26:48;100872.56;;;20.44;100.00
23733;BME280;12047;53.450;-2.286;2023-08-24T21:31:48;100888.97;;;20.21;100.00
23733;BME280;12047;53.450;-2.286;2023-08-24T21:36:49;100879.81;;;20.15;100.00
23733;BME280;12047;53.450;-2.286;2023-08-24T21:41:57;100885.69;;;19.97;100.00
23733;BME280;12047;53.450;-2.286;2023-08-24T21:46:57;100875.19;;;20.09;100.00
23733;BME280;12047;53.450;-2.286;2023-08-24T21:51:58;100884.41;;;20.21;100.00
23733;BME280;12047;53.450;-2.286;2023-08-24T21:56:58;100886.91;;;19.95;100.00
23733;BME280;12047;53.450;-2.286;2023-08-24T22:01:58;100885.31;;;20.07;100.00
23733;BME280;12047;53.450;-2.286;2023-08-24T22:06:59;100879.84;;;19.94;100.00
23733;BME280;12047;53.450;-2.286;2023-08-24T22:12:00;100879.19;;;19.64;100.00
23733;BME280;12047;53.450;-2.286;2023-08-24T22:17:00;100883.34;;;19.30;100.00
23733;BME280;12047;53.450;-2.286;2023-08-24T22:22:00;100873.53;;;19.37;100.00
23733;BME280;12047;53.450;-2.286;2023-08-24T22:27:01;100879.53;;;18.53;100.00
23733;BME280;12047;53.450;-2.286;2023-08-24T22:32:03;100877.38;;;18.19;100.00
23733;BME280;12047;53.450;-2.286;2023-08-24T22:37:09;100870.19;;;18.63;100.00
23733;BME280;12047;53.450;-2.286;2023-08-24T22:42:10;100872.75;;;18.42;100.00
23733;BME280;12047;53.450;-2.286;2023-08-24T22:47:13;100874.41;;;18.43;100.00
23733;BME280;12047;53.450;-2.286;2023-08-24T22:52:13;100862.66;;;19.24;100.00
23733;BME280;12047;53.450;-2.286;2023-08-24T22:57:14;100854.22;;;19.27;100.00
23733;BME280;12047;53.450;-2.286;2023-08-24T23:02:16;100872.88;;;18.78;100.00
23733;BME280;12047;53.450;-2.286;2023-08-24T23:07:17;100872.88;;;18.63;100.00
23733;BME280;12047;53.450;-2.286;2023-08-24T23:12:21;100868.94;;;18.95;100.00
23733;BME280;12047;53.450;-2.286;2023-08-24T23:17:22;100871.41;;;17.79;100.00
23733;BME280;12047;53.450;-2.286;2023-08-24T23:22:25;100870.94;;;17.90;100.00
23733;BME280;12047;53.450;-2.286;2023-08-24T23:27:25;100858.31;;;18.58;100.00
23733;BME280;12047;53.450;-2.286;2023-08-24T23:32:26;100858.31;;;17.99;100.00
23733;BME280;12047;53.450;-2.286;2023-08-24T23:37:28;100851.63;;;17.95;100.00
23733;BME280;12047;53.450;-2.286;2023-08-24T23:42:28;100852.88;;;18.22;100.00
23733;BME280;12047;53.450;-2.286;2023-08-24T23:47:29;100850.81;;;18.09;100.00
23733;BME280;12047;53.450;-2.286;2023-08-24T23:52:31;100850.25;;;17.99;100.00
23733;BME280;12047;53.450;-2.286;2023-08-24T23:57:32;100835.47;;;18.03;100.00
